Flight Track Log - Related Links

Times and Time Zones

All times are in EDT time to prevent confusion due to time zone crossing. See the SWA1649 flight status page for this flight to view local times or setup timezone preferences in your user account.

Time Position Orientation Groundspeed Altitude Reporting Facility
EDT Latitude Longitude Course Direction KTS MPH feet Rate Location/Type
Wed 10:25:32 PM 41.7617 -86.6083 273° West  Level FlightAware Approximate
Wed 10:26:32 PM 41.7667 -86.4557 272° West  Level FlightAware Approximate
Wed 10:27:32 PM 41.7687 -86.3033 272° West  Level FlightAware Approximate
Wed 10:28:32 PM 41.7766 -86.1508 272° West  Level FlightAware Approximate
Wed 10:29:32 PM 41.8167 -86.0098 270° West  Level FlightAware Approximate
Wed 10:30:32 PM 41.8346 -85.8601 269° West  Level FlightAware Approximate
Wed 10:31:30 PM 41.7972 -87.5897 89° East 227 261 6,400  Level Chicago Center
Wed 10:35:30 PM 41.8031 -87.0964 77° East 351 404 18,400 2,900 Climbing Chicago Center
Wed 10:36:30 PM 41.8272 -86.9561 83° East 371 427 20,900 2,450 Climbing Chicago Center
Wed 10:37:30 PM 41.8406 -86.8025 84° East 392 451 23,300 2,400 Climbing Chicago Center
Wed 10:38:30 PM 41.8536 -86.6431 85° East 419 482 25,700 2,150 Climbing Chicago Center
Wed 10:39:30 PM 41.8644 -86.4808 83° East 440 506 27,600 1,800 Climbing Chicago Center
Wed 10:40:30 PM 41.8808 -86.3097 85° East 447 514 29,300 1,700 Climbing Chicago Center
Wed 10:41:30 PM 41.8908 -86.1392 85° East 452 520 31,000 1,800 Climbing Chicago Center
Wed 10:42:30 PM 41.9025 -85.9656 84° East 457 526 32,900 1,600 Climbing Chicago Center
Wed 10:43:30 PM 41.9158 -85.7919 85° East 466 536 34,200 1,387 Climbing Chicago Center
Wed 10:45:36 PM 41.9419 -85.4022 85° East 473 544 37,200 1,323 Climbing Cleveland Center
Wed 10:46:36 PM 41.9536 -85.2242 90° East 473 544 38,300 900 Climbing Cleveland Center
Wed 10:47:36 PM 41.9544 -85.0483 91° East 473 544 39,000 350 Climbing Cleveland Center
Wed 10:48:36 PM 41.9508 -84.8694 82° East 479 551 39,000  Level Cleveland Center
Wed 10:49:36 PM 41.9697 -84.6917 84° East 472 543 39,000  Level Cleveland Center
Wed 10:50:36 PM 41.9842 -84.5194 80° East 472 543 39,000  Level Cleveland Center
Wed 10:51:36 PM 42.0067 -84.3447 82° East 472 543 39,000  Level Cleveland Center
Wed 10:52:36 PM 42.0222 -84.1892 83° East 466 536 39,000  Level Cleveland Center
Wed 10:53:36 PM 42.0381 -84.0083 81° East 478 550 39,000  Level Cleveland Center
Wed 10:54:36 PM 42.0578 -83.8331 83° East 478 550 39,000  Level Cleveland Center
Wed 10:55:36 PM 42.0731 -83.6575 83° East 483 556 39,000  Level Cleveland Center
Wed 10:56:36 PM 42.0903 -83.4736 82° East 483 556 39,000  Level Cleveland Center
Wed 10:57:36 PM 42.1092 -83.2953 84° East 474 545 39,000  Level Cleveland Center
Wed 10:58:36 PM 42.1236 -83.1167 82° East 479 551 39,000  Level Cleveland Center
Wed 10:59:36 PM 42.1422 -82.9328 83° East 485 558 39,000  Level Cleveland Center
Wed 11:00:36 PM 42.1583 -82.7567 82° East 478 550 39,000  Level Cleveland Center
Wed 11:01:36 PM 42.1761 -82.5781 85° East 478 550 39,000  Level Cleveland Center
Wed 11:02:36 PM 42.1875 -82.3933 83° East 484 557 39,000  Level Cleveland Center
Wed 11:03:36 PM 42.2028 -82.2144 83° East 489 563 39,000  Level Cleveland Center
Wed 11:04:36 PM 42.2200 -82.0103 83° East 489 563 39,000  Level Cleveland Center
Wed 11:05:36 PM 42.2367 -81.8283 83° East 484 557 39,000  Level Cleveland Center
Wed 11:06:36 PM 42.2531 -81.6464 85° East 484 557 39,000  Level Cleveland Center
Wed 11:07:36 PM 42.2650 -81.4614 84° East 484 557 39,000  Level Cleveland Center
Wed 11:08:36 PM 42.2786 -81.2931 84° East 489 563 39,000  Level Cleveland Center
Wed 11:09:36 PM 42.2922 -81.1108 84° East 489 563 39,000  Level Cleveland Center
Wed 11:10:36 PM 42.3056 -80.9256 84° East 494 568 39,000  Level Cleveland Center
Wed 11:11:36 PM 42.3206 -80.7433 86° East 494 568 39,000  Level Cleveland Center
Wed 11:12:36 PM 42.3311 -80.5578 85° East 494 568 39,000  Level Cleveland Center
Wed 11:13:36 PM 42.3433 -80.3583 85° East 494 568 39,000  Level Cleveland Center
Wed 11:14:36 PM 42.3553 -80.1731 85° East 494 568 39,000  Level Cleveland Center
Wed 11:15:36 PM 42.3669 -79.9931 83° East 487 560 39,000  Level Cleveland Center
Wed 11:16:36 PM 42.3825 -79.8103 85° East 487 560 39,000  Level Cleveland Center
Wed 11:17:36 PM 42.3936 -79.6272 86° East 482 555 39,000  Level Cleveland Center
Wed 11:18:36 PM 42.4025 -79.4444 85° East 482 555 39,000  Level Cleveland Center
Wed 11:19:36 PM 42.4150 -79.2614 86° East 482 555 39,000  Level Cleveland Center
Wed 11:20:48 PM 42.4269 -79.0361 86° East 487 560 39,000  Level Cleveland Center
Wed 11:21:48 PM 42.4367 -78.8503 86° East 492 566 39,000  Level Cleveland Center
Wed 11:22:49 PM 42.4467 -78.6756 86° East 508 585 39,000 -300 Level Cleveland Center
Wed 11:23:48 PM 42.4558 -78.4978 86° East 508 585 38,400 -807 Descending Cleveland Center
Wed 11:24:48 PM 42.4669 -78.3006 87° East 502 578 37,400 -950 Descending Cleveland Center
Wed 11:25:48 PM 42.4733 -78.1117 86° East 502 578 36,500 -950 Descending Cleveland Center
Wed 11:26:48 PM 42.4836 -77.9197 86° East 502 578 35,500 -495 Descending Cleveland Center
Wed 11:28:50 PM 42.5022 -77.5019 87° East 493 567 35,000 -165 Descending Boston Center
Wed 11:29:50 PM 42.5108 -77.3053 88° East 514 592 35,000  Level Boston Center
Wed 11:30:50 PM 42.5169 -77.1083 86° East 514 592 35,000  Level Boston Center
Wed 11:31:50 PM 42.5269 -76.9147 87° East 514 592 35,000  Level Boston Center
Wed 11:32:50 PM 42.5344 -76.7208 88° East 514 592 35,000  Level Boston Center
Wed 11:33:50 PM 42.5394 -76.5267 90° East 514 592 35,000 -200 Level Boston Center
Wed 11:34:50 PM 42.5400 -76.3319 97° East 514 592 34,600 -700 Descending Boston Center
Wed 11:35:50 PM 42.5233 -76.1422 95° East 514 592 33,600 -1,000 Descending Boston Center
Wed 11:36:50 PM 42.5111 -75.9442 95° East 519 597 32,600 -1,000 Descending Boston Center
Wed 11:37:50 PM 42.4981 -75.7519 96° East 524 603 31,600 -1,000 Descending Boston Center
Wed 11:38:50 PM 42.4825 -75.5625 96° East 519 597 30,600 -1,000 Descending Boston Center
Wed 11:39:50 PM 42.4686 -75.3786 96° East 506 582 29,600 -1,000 Descending Boston Center
Wed 11:40:50 PM 42.4561 -75.2119 96° East 499 574 28,600 -1,050 Descending Boston Center
Wed 11:41:50 PM 42.4417 -75.0342 96° East 493 567 27,500 -1,050 Descending Boston Center
Wed 11:42:50 PM 42.4289 -74.8564 97° East 481 554 26,500 -1,000 Descending Boston Center
Wed 11:43:50 PM 42.4136 -74.6814 96° East 476 548 25,500 -1,000 Descending Boston Center
Wed 11:44:50 PM 42.4003 -74.5067 96° East 471 542 24,500 -1,000 Descending Boston Center
Wed 11:45:50 PM 42.3867 -74.3431 97° East 460 529 23,500 -1,000 Descending Boston Center
Wed 11:46:50 PM 42.3725 -74.1797 97° East 444 511 22,500 -1,400 Descending Boston Center
Wed 11:47:50 PM 42.3583 -74.0136 97° East 439 505 20,700 -2,200 Descending Boston Center
Wed 11:48:50 PM 42.3419 -73.8333 96° East 445 512 18,100 -2,450 Descending Boston Center
Wed 11:49:50 PM 42.3308 -73.6925 98° East 445 512 15,800 -2,340 Descending Boston Center
Wed 11:50:30 PM 42.3178 -73.5661 98° East 429 494 14,200 -1,663 Descending Boston Center
Wed 11:51:31 PM 42.3025 -73.4169 134° Southeast 398 458 13,000 -1,140 Descending Boston Center
Wed 11:52:31 PM 42.2364 -73.3233 142° Southeast 347 399 11,900 -1,240 Descending Boston Center
Wed 11:53:32 PM 42.1600 -73.2439 142° Southeast 341 392 10,500 -1,488 Descending Boston Center
Wed 11:54:32 PM 42.0936 -73.1731 143° Southeast 317 365 8,900 -1,587 Descending Boston Center
Wed 11:55:33 PM 42.0275 -73.1053 141° Southeast 299 344 7,300 -1,525 Descending Boston Center
Wed 11:56:34 PM 41.9653 -73.0375 142° Southeast 287 330 5,800 -1,339 Descending Boston Center
Wed 11:57:34 PM 41.9011 -72.9700 145° Southeast 280 322 4,600 -1,252 Descending Boston Center
Wed 11:58:29 PM 41.8450 -72.9167 111° Southeast 277 319 3,400 -1,043 Descending Boston Center
Wed 11:59:29 PM 41.8225 -72.8383 43° Northeast 246 283 2,600 -595 Descending Boston Center
Thu 12:00:30 AM 41.8622 -72.7886 43° Northeast 198 228 2,200 -689 Descending Boston Center
Thu 12:01:31 AM 41.8936 -72.7497 43° Northeast 143 165 1,200 -843 Descending Boston Center
Thu 12:02:31 AM 41.9228 -72.7136 43° Northeast 142 163 500 -700 Descending Boston Center

Login

Don't have an account? Register now (free) for customized features, flight alerts, and more!